• Join FlightAware (Why Join?)
  • Login
  • US Flag 
09:17PM EDT


 

Airport Tracker/Info


-or-


 

Live Flight TrackerFlight Track Log ✈ N3QG ✈ 18-Aug-2013 ✈ KIAD - KACY

Flight Track Log - Related Links

Times and Time Zones

All times are in EDT time to prevent confusion due to time zone crossing. See the N3QG flight status page for this flight to view local times or setup timezone preferences in your user account.

Time Position Orientation Groundspeed Altitude Reporting Facility
EDT Latitude Longitude Course Direction KTS MPH feet Rate Location/Type
06:17AM 39.0333 -77.4667 345° North 212 244 7,000  Level Potomac TRACON
06:18AM 39.1000 -77.4667 360° North 230 265 9,100 1,740 Climbing Potomac TRACON
06:19AM 39.1500 -77.3833 52° Northeast 297 342 10,500 1,260 Climbing Potomac TRACON
06:21AM 39.2572 -77.1892 54° Northeast 333 383 13,100 1,200 Climbing Washington Center
06:22AM 39.3128 -77.0722 58° Northeast 364 419 14,300 960 Climbing Washington Center
06:23AM 39.3083 -76.9300 92° East 370 426 15,100 360 Climbing Washington Center
06:24AM 39.2658 -76.7981 113° Southeast 370 426 15,100  Level Washington Center
06:25AM 39.2275 -76.6686 111° Southeast 376 433 15,100  Level Washington Center
06:26AM 39.1869 -76.5422 112° Southeast 388 447 15,100  Level Washington Center
06:27AM 39.1481 -76.4133 111° Southeast 388 447 15,100  Level Washington Center
06:28AM 39.1094 -76.2872 111° Southeast 382 440 15,100 -60 Level Washington Center
06:29AM 39.0725 -76.1583 110° East 377 434 15,000 -60 Descending Washington Center
06:30AM 39.0458 -76.0247 104° East 377 434 15,000  Level Washington Center
06:31AM 39.0506 -75.8831 87° East 385 443 15,000  Level Washington Center
06:32AM 39.0592 -75.7361 86° East 391 450 15,000 -420 Level Washington Center
06:33AM 39.0800 -75.5836 80° East 397 457 14,200 -1,080 Descending Washington Center
06:34AM 39.1258 -75.4550 65° Northeast 397 457 12,900 -1,320 Descending Washington Center
06:35AM 39.1736 -75.3319 63° Northeast 397 457 11,700 -1,140 Descending Washington Center
06:35AM 39.2086 -75.2408 64° Northeast 375 432 11,000 -780 Descending Washington Center
06:37AM 39.2644 -75.0931 64° Northeast 368 423 10,200 -1,200 Descending Washington Center
06:38AM 39.2994 -75.0017 64° Northeast 326 375 8,400 -2,100 Descending Washington Center
06:39AM 39.3322 -74.9128 64° Northeast 289 333 6,100 -2,400 Descending Washington Center
06:39AM 39.3550 -74.8481 66° East 267 307 4,300 -2,220 Descending Washington Center
06:41AM 39.3958 -74.7536 61° Northeast 250 288 1,800 -1,260 Descending Washington Center
06:42AM 39.4433 -74.6886 47° Northeast 240 276 1,600 -360 Descending Washington Center
06:43AM 39.4722 -74.6453 49° Northeast 204 235 1,100 -660 Descending Washington Center
06:43AM 39.4700 -74.6131 95° East 122 140 500 -420 Descending Washington Center
06:45AM 39.4883 -74.5644 64° Northeast 128 147 300 -180 Descending Washington Center